Echols, Kentucky
Current Conditions -  °F | °C
As of 5:55 AM on Saturday 25 Oct 2014 (Local Time) from K2I0 Reporting Station
Overcast Overcast  
Wind Chill: 57°   Ceiling: 4100
Heat Index: 57°   Visibility: 10mi
Dew Point: 55°   Wind: 6mph
Humidity: 92%   Direction: 210°SSW
Pressure: 30.04"   Gusts: NA
Location:  37.3559°N, 86.8747°W
Report Text: K2I0 251055Z AUTO 21005KT 10SM OVC041 14/13 A3004 RMK AO2 T01410128
Loading
Personal Weather Stations






























Interactive Weather Map
Tropical Storm Tracking
New forecast layout! Learn more

10-Day Weather Forecast

Advertisements
Track Severe Weather on mobile